createdAt,value
2022-12-24T00:00:46.334Z,10.41
2022-12-24T00:01:46.253Z,10.41
2022-12-24T00:02:46.443Z,10.41
2022-12-24T00:03:46.303Z,10.26
2022-12-24T00:04:46.240Z,10.36
2022-12-24T00:05:46.235Z,10.35
2022-12-24T00:06:46.245Z,10.26
2022-12-24T00:07:46.269Z,10.34
2022-12-24T00:08:46.231Z,10.34
2022-12-24T00:09:46.229Z,10.30
2022-12-24T00:10:46.221Z,10.21
2022-12-24T00:11:46.221Z,10.28
2022-12-24T00:12:46.207Z,10.23
2022-12-24T00:13:46.236Z,10.24
2022-12-24T00:14:46.213Z,10.17
2022-12-24T00:15:46.192Z,10.17
2022-12-24T00:16:46.161Z,10.21
2022-12-24T00:17:46.145Z,10.12
2022-12-24T00:18:47.084Z,10.10
2022-12-24T00:19:47.169Z,10.12
2022-12-24T00:20:46.118Z,10.10
2022-12-24T00:21:46.157Z,10.05
2022-12-24T00:22:46.157Z,10.05
2022-12-24T00:23:46.119Z,10.10
2022-12-24T00:24:46.164Z,10.12
2022-12-24T00:25:46.146Z,10.20
2022-12-24T00:26:46.105Z,10.14
2022-12-24T00:27:46.056Z,10.05
2022-12-24T00:28:46.063Z,10.17
2022-12-24T00:29:46.130Z,10.06
2022-12-24T00:30:46.107Z,10.12
2022-12-24T00:31:46.109Z,10.24
2022-12-24T00:32:46.061Z,10.21
2022-12-24T00:33:46.078Z,10.31
2022-12-24T00:34:46.040Z,10.26
2022-12-24T00:35:46.097Z,10.21
2022-12-24T00:36:46.047Z,10.20
2022-12-24T00:37:46.055Z,10.20
2022-12-24T00:38:46.019Z,10.14
2022-12-24T00:39:46.027Z,10.09
2022-12-24T00:40:46.079Z,10.20
2022-12-24T00:41:46.000Z,10.12
2022-12-24T00:42:46.007Z,10.10
2022-12-24T00:43:45.980Z,10.09
2022-12-24T00:44:46.019Z,10.18
2022-12-24T00:45:46.089Z,10.21
2022-12-24T00:46:46.067Z,10.18
2022-12-24T00:47:45.959Z,10.18
2022-12-24T00:48:45.973Z,10.14
2022-12-24T00:49:45.952Z,10.12
2022-12-24T00:50:46.059Z,10.21
2022-12-24T00:51:45.978Z,10.12
2022-12-24T00:52:45.935Z,10.14
2022-12-24T00:53:45.940Z,10.12
2022-12-24T00:54:45.958Z,10.12
2022-12-24T00:55:45.942Z,10.18
2022-12-24T00:56:45.922Z,10.23
2022-12-24T00:57:45.949Z,10.21
2022-12-24T00:58:45.925Z,10.27
2022-12-24T00:59:45.872Z,10.42
2022-12-24T01:00:45.936Z,10.43
2022-12-24T01:01:45.998Z,10.41
2022-12-24T01:02:46.186Z,10.38
2022-12-24T01:03:46.016Z,10.41
2022-12-24T01:04:45.909Z,10.27
2022-12-24T01:05:45.899Z,10.28
2022-12-24T01:06:45.874Z,10.36
2022-12-24T01:07:45.830Z,10.26
2022-12-24T01:08:45.904Z,10.35
2022-12-24T01:09:45.830Z,10.41
2022-12-24T01:10:45.855Z,10.41
2022-12-24T01:11:45.850Z,10.41
2022-12-24T01:12:45.806Z,10.38
2022-12-24T01:13:45.860Z,10.43
2022-12-24T01:14:45.817Z,10.48
2022-12-24T01:15:45.876Z,10.41
2022-12-24T01:16:45.826Z,10.46
2022-12-24T01:17:45.825Z,10.42
2022-12-24T01:18:45.853Z,10.46
2022-12-24T01:19:45.873Z,10.38
2022-12-24T01:20:45.748Z,10.39
2022-12-24T01:21:45.783Z,10.46
2022-12-24T01:22:45.728Z,10.43
2022-12-24T01:23:45.818Z,10.43
2022-12-24T01:24:45.833Z,10.52
2022-12-24T01:25:45.804Z,10.65
2022-12-24T01:26:45.758Z,10.58
2022-12-24T01:27:45.746Z,10.57
2022-12-24T01:28:45.711Z,10.54
2022-12-24T01:29:45.709Z,10.60
2022-12-24T01:30:45.848Z,10.52
2022-12-24T01:31:45.757Z,10.49
2022-12-24T01:32:45.704Z,10.57
2022-12-24T01:33:45.736Z,10.55
2022-12-24T01:34:45.720Z,10.45
2022-12-24T01:35:45.691Z,10.52
2022-12-24T01:36:45.649Z,10.49
2022-12-24T01:37:45.676Z,10.52
2022-12-24T01:38:45.691Z,10.49
2022-12-24T01:39:45.693Z,10.52
2022-12-24T01:40:45.647Z,10.52
2022-12-24T01:41:45.701Z,10.38
2022-12-24T01:42:45.626Z,10.34
2022-12-24T01:43:45.654Z,10.42
2022-12-24T01:44:45.633Z,10.41
2022-12-24T01:45:45.659Z,10.42
2022-12-24T01:46:45.728Z,10.34
2022-12-24T01:47:45.635Z,10.30
2022-12-24T01:48:46.566Z,10.26
2022-12-24T01:49:45.623Z,10.28
2022-12-24T01:50:45.589Z,10.34
2022-12-24T01:51:45.594Z,10.34
2022-12-24T01:52:45.614Z,10.26
2022-12-24T01:53:45.585Z,10.43
2022-12-24T01:54:45.586Z,10.36
2022-12-24T01:55:45.582Z,10.38
2022-12-24T01:56:45.541Z,10.39
2022-12-24T01:57:45.700Z,10.42
2022-12-24T01:58:45.567Z,10.45
2022-12-24T01:59:45.535Z,10.43
2022-12-24T02:00:45.566Z,10.38
2022-12-24T02:01:45.617Z,10.55
2022-12-24T02:02:45.676Z,10.38
2022-12-24T02:03:45.606Z,10.49
2022-12-24T02:04:45.495Z,10.41
2022-12-24T02:05:45.518Z,10.45
2022-12-24T02:06:45.520Z,10.45
2022-12-24T02:07:45.490Z,10.45
2022-12-24T02:08:45.573Z,10.39
2022-12-24T02:09:45.486Z,10.48
2022-12-24T02:10:45.477Z,10.52
2022-12-24T02:11:45.485Z,10.61
2022-12-24T02:12:45.475Z,10.41
2022-12-24T02:13:45.461Z,10.41
2022-12-24T02:14:45.455Z,10.49
2022-12-24T02:15:45.506Z,10.60
2022-12-24T02:16:45.460Z,10.48
2022-12-24T02:17:45.431Z,10.55
2022-12-24T02:18:45.408Z,10.55
2022-12-24T02:19:45.516Z,10.46
2022-12-24T02:20:45.408Z,10.48
2022-12-24T02:21:45.423Z,10.65
2022-12-24T02:22:45.384Z,10.60
2022-12-24T02:23:45.391Z,10.61
2022-12-24T02:24:45.361Z,10.60
2022-12-24T02:25:45.495Z,10.62
2022-12-24T02:26:45.390Z,10.58
2022-12-24T02:27:45.373Z,10.52
2022-12-24T02:28:45.393Z,10.60
2022-12-24T02:29:45.348Z,10.61
2022-12-24T02:30:45.454Z,10.58
2022-12-24T02:31:45.373Z,10.60
2022-12-24T02:32:45.340Z,10.61
2022-12-24T02:33:45.394Z,10.60
2022-12-24T02:34:45.322Z,10.54
2022-12-24T02:35:45.331Z,10.60
2022-12-24T02:36:45.445Z,10.70
2022-12-24T02:37:45.324Z,10.61
2022-12-24T02:38:45.320Z,10.48
2022-12-24T02:39:45.283Z,10.61
2022-12-24T02:40:45.269Z,10.57
2022-12-24T02:41:45.325Z,10.55
2022-12-24T02:42:45.298Z,10.68
2022-12-24T02:43:45.259Z,10.62
2022-12-24T02:44:45.252Z,10.62
2022-12-24T02:45:45.282Z,10.65
2022-12-24T02:46:45.337Z,10.54
2022-12-24T02:47:45.260Z,10.52
2022-12-24T02:48:45.238Z,10.43
2022-12-24T02:49:45.276Z,10.55
2022-12-24T02:50:45.250Z,10.43
2022-12-24T02:51:45.241Z,10.45
2022-12-24T02:52:45.262Z,10.55
2022-12-24T02:53:45.199Z,10.46
2022-12-24T02:54:45.210Z,10.41
2022-12-24T02:55:45.212Z,10.42
2022-12-24T02:56:45.221Z,10.42
2022-12-24T02:57:45.193Z,10.39
2022-12-24T02:58:45.236Z,10.45
2022-12-24T02:59:45.146Z,10.35
2022-12-24T03:00:45.189Z,10.39
2022-12-24T03:01:45.262Z,10.41
2022-12-24T03:02:45.239Z,10.39
2022-12-24T03:03:45.189Z,10.39
2022-12-24T03:04:45.147Z,10.43
2022-12-24T03:05:45.163Z,10.52
2022-12-24T03:06:45.123Z,10.45
2022-12-24T03:07:45.155Z,10.49
2022-12-24T03:08:45.154Z,10.45
2022-12-24T03:09:45.164Z,10.43
2022-12-24T03:10:45.109Z,10.52
2022-12-24T03:11:45.112Z,10.54
2022-12-24T03:12:45.083Z,10.43
2022-12-24T03:13:45.076Z,10.45
2022-12-24T03:14:45.122Z,10.52
2022-12-24T03:15:45.107Z,10.45
2022-12-24T03:16:45.176Z,10.30
2022-12-24T03:17:45.123Z,10.28
2022-12-24T03:18:45.050Z,10.28
2022-12-24T03:19:45.063Z,10.28
2022-12-24T03:20:45.076Z,10.39
2022-12-24T03:21:45.077Z,10.39
2022-12-24T03:22:45.074Z,10.26
2022-12-24T03:23:45.022Z,10.26
2022-12-24T03:24:45.033Z,10.18
2022-12-24T03:25:45.014Z,10.12
2022-12-24T03:26:45.016Z,10.17
2022-12-24T03:27:44.997Z,10.12
2022-12-24T03:28:45.037Z,10.14
2022-12-24T03:29:45.032Z,10.17
2022-12-24T03:30:44.996Z,10.12
2022-12-24T03:31:45.126Z,10.10
2022-12-24T03:32:44.976Z,10.16
2022-12-24T03:33:44.976Z,10.09
2022-12-24T03:34:44.982Z,10.10
2022-12-24T03:35:44.974Z,10.02
2022-12-24T03:36:44.978Z,9.88
2022-12-24T03:37:44.933Z,9.87
2022-12-24T03:38:44.965Z,9.85
2022-12-24T03:39:44.974Z,9.88
2022-12-24T03:40:44.923Z,9.85
2022-12-24T03:41:44.924Z,9.80
2022-12-24T03:42:45.036Z,9.87
2022-12-24T03:43:44.913Z,9.72
2022-12-24T03:44:44.897Z,9.84
2022-12-24T03:45:44.982Z,9.91
2022-12-24T03:46:44.907Z,9.88
2022-12-24T03:47:44.971Z,9.85
2022-12-24T03:48:44.859Z,9.84
2022-12-24T03:49:44.884Z,9.72
2022-12-24T03:50:44.893Z,9.81
2022-12-24T03:51:44.860Z,9.73
2022-12-24T03:52:44.871Z,9.90
2022-12-24T03:53:44.880Z,9.77
2022-12-24T03:54:44.852Z,9.72
2022-12-24T03:55:44.847Z,9.63
2022-12-24T03:56:44.851Z,9.54
2022-12-24T03:57:44.837Z,9.57
2022-12-24T03:58:44.822Z,9.59
2022-12-24T03:59:44.804Z,9.55
2022-12-24T04:00:44.840Z,9.47
2022-12-24T04:01:44.932Z,9.44
2022-12-24T04:02:44.878Z,9.62
2022-12-24T04:03:44.783Z,9.57
2022-12-24T04:04:44.916Z,9.57
2022-12-24T04:05:44.775Z,9.67
2022-12-24T04:06:44.806Z,9.62
2022-12-24T04:07:44.794Z,9.66
2022-12-24T04:08:44.783Z,9.67
2022-12-24T04:09:44.781Z,9.67
2022-12-24T04:10:44.785Z,9.73
2022-12-24T04:11:44.776Z,9.67
2022-12-24T04:12:44.754Z,9.75
2022-12-24T04:13:44.734Z,9.78
2022-12-24T04:14:44.721Z,9.73
2022-12-24T04:15:44.839Z,9.67
2022-12-24T04:16:44.810Z,9.60
2022-12-24T04:17:44.720Z,9.66
2022-12-24T04:18:44.704Z,9.63
2022-12-24T04:19:44.737Z,9.63
2022-12-24T04:20:44.702Z,9.60
2022-12-24T04:21:44.680Z,9.67
2022-12-24T04:22:44.686Z,9.59
2022-12-24T04:23:44.681Z,9.55
2022-12-24T04:24:44.730Z,9.54
2022-12-24T04:25:44.656Z,9.65
2022-12-24T04:26:44.712Z,9.50
2022-12-24T04:27:44.630Z,9.48
2022-12-24T04:28:44.709Z,9.32
2022-12-24T04:29:44.636Z,9.23
2022-12-24T04:30:44.615Z,9.19
2022-12-24T04:31:44.929Z,9.22
2022-12-24T04:32:44.631Z,9.22
2022-12-24T04:33:44.624Z,9.26
2022-12-24T04:34:44.609Z,9.15
2022-12-24T04:35:44.616Z,9.14
2022-12-24T04:36:44.634Z,9.01
2022-12-24T04:37:44.625Z,9.04
2022-12-24T04:38:44.603Z,8.95
2022-12-24T04:39:44.576Z,8.99
2022-12-24T04:40:44.600Z,9.04
2022-12-24T04:41:44.528Z,9.03
2022-12-24T04:42:44.555Z,9.08
2022-12-24T04:43:44.566Z,9.09
2022-12-24T04:44:44.547Z,8.99
2022-12-24T04:45:44.596Z,9.12
2022-12-24T04:46:44.579Z,9.01
2022-12-24T04:47:44.531Z,9.04
2022-12-24T04:48:44.619Z,9.01
2022-12-24T04:49:44.512Z,9.06
2022-12-24T04:50:44.529Z,9.01
2022-12-24T04:51:44.489Z,9.06
2022-12-24T04:52:44.481Z,9.06
2022-12-24T04:53:44.507Z,8.98
2022-12-24T04:54:44.500Z,9.08
2022-12-24T04:55:44.465Z,9.03
2022-12-24T04:56:44.480Z,9.12
2022-12-24T04:57:49.724Z,9.08
2022-12-24T04:58:46.506Z,9.06
2022-12-24T04:59:44.456Z,8.98
2022-12-24T05:00:44.429Z,9.18
2022-12-24T05:01:44.613Z,9.11
2022-12-24T05:02:44.555Z,9.19
2022-12-24T05:03:44.449Z,9.11
2022-12-24T05:04:44.477Z,9.11
2022-12-24T05:05:44.459Z,9.12
2022-12-24T05:06:44.384Z,9.12
2022-12-24T05:07:44.396Z,9.23
2022-12-24T05:08:44.420Z,9.19
2022-12-24T05:09:44.457Z,9.16
2022-12-24T05:10:44.438Z,9.33
2022-12-24T05:11:44.390Z,9.36
2022-12-24T05:12:44.378Z,9.29
2022-12-24T05:13:47.447Z,9.34
2022-12-24T05:14:45.382Z,9.34
2022-12-24T05:15:44.355Z,9.29
2022-12-24T05:16:44.432Z,9.27
2022-12-24T05:17:44.342Z,9.32
2022-12-24T05:18:44.311Z,9.30
2022-12-24T05:19:44.350Z,9.33
2022-12-24T05:20:44.415Z,9.40
2022-12-24T05:21:44.312Z,9.33
2022-12-24T05:22:44.308Z,9.47
2022-12-24T05:23:44.306Z,9.41
2022-12-24T05:24:44.285Z,9.44
2022-12-24T05:25:44.433Z,9.45
2022-12-24T05:26:44.293Z,9.48
2022-12-24T05:27:50.667Z,9.44
2022-12-24T05:28:46.275Z,9.37
2022-12-24T05:29:44.251Z,9.41
2022-12-24T05:30:44.303Z,9.37
2022-12-24T05:31:44.359Z,9.40
2022-12-24T05:32:44.248Z,9.44
2022-12-24T05:33:44.246Z,9.41
2022-12-24T05:34:44.214Z,9.42
2022-12-24T05:35:44.237Z,9.44
2022-12-24T05:36:44.307Z,9.32
2022-12-24T05:37:44.245Z,9.41
2022-12-24T05:38:44.217Z,9.34
2022-12-24T05:39:44.226Z,9.34
2022-12-24T05:40:44.211Z,9.24
2022-12-24T05:41:44.192Z,9.42
2022-12-24T05:42:44.210Z,9.36
2022-12-24T05:43:44.149Z,9.32
2022-12-24T05:44:44.168Z,9.27
2022-12-24T05:45:44.243Z,9.42
2022-12-24T05:46:44.308Z,9.40
2022-12-24T05:47:44.200Z,9.34
2022-12-24T05:48:44.139Z,9.36
2022-12-24T05:49:44.102Z,9.26
2022-12-24T05:50:44.153Z,9.27
2022-12-24T05:51:44.156Z,9.22
2022-12-24T05:52:44.132Z,9.29
2022-12-24T05:53:44.162Z,9.14
2022-12-24T05:54:44.101Z,9.16
2022-12-24T05:55:44.095Z,9.14
2022-12-24T05:56:44.089Z,9.04
2022-12-24T05:57:44.120Z,9.11
2022-12-24T05:58:44.106Z,9.15
2022-12-24T05:59:44.113Z,9.12
2022-12-24T06:00:44.168Z,9.11
2022-12-24T06:01:44.111Z,9.12
2022-12-24T06:02:44.151Z,9.18
2022-12-24T06:03:44.082Z,9.18
2022-12-24T06:04:44.086Z,9.06
2022-12-24T06:05:44.031Z,9.18
2022-12-24T06:06:44.041Z,9.09
2022-12-24T06:07:44.050Z,9.15
2022-12-24T06:08:44.029Z,9.19
2022-12-24T06:09:44.056Z,9.16
2022-12-24T06:10:44.027Z,9.22
2022-12-24T06:11:44.033Z,9.19
2022-12-24T06:12:44.041Z,9.23
2022-12-24T06:13:43.993Z,9.14
2022-12-24T06:14:43.996Z,9.16
2022-12-24T06:15:44.190Z,9.19
2022-12-24T06:16:43.961Z,9.15
2022-12-24T06:17:43.964Z,9.18
2022-12-24T06:18:43.992Z,9.19
2022-12-24T06:19:43.957Z,9.29
2022-12-24T06:20:43.969Z,9.23
2022-12-24T06:21:43.933Z,9.26
2022-12-24T06:22:43.958Z,9.22
2022-12-24T06:23:43.910Z,9.26
2022-12-24T06:24:43.908Z,9.32
2022-12-24T06:25:43.940Z,9.24
2022-12-24T06:26:44.078Z,9.30
2022-12-24T06:27:43.929Z,9.27
2022-12-24T06:28:43.892Z,9.24
2022-12-24T06:29:43.908Z,9.32
2022-12-24T06:30:43.934Z,9.26
2022-12-24T06:31:44.034Z,9.15
2022-12-24T06:32:43.908Z,8.99
2022-12-24T06:33:43.880Z,8.99
2022-12-24T06:34:43.878Z,9.11
2022-12-24T06:35:43.872Z,9.15
2022-12-24T06:36:43.899Z,9.14
2022-12-24T06:37:43.883Z,9.01
2022-12-24T06:38:43.862Z,9.08
2022-12-24T06:39:43.828Z,9.27
2022-12-24T06:40:43.838Z,9.23
2022-12-24T06:41:43.808Z,9.18
2022-12-24T06:42:43.843Z,9.16
2022-12-24T06:43:43.806Z,9.18
2022-12-24T06:44:43.816Z,9.18
2022-12-24T06:45:43.785Z,9.16
2022-12-24T06:46:43.943Z,9.19
2022-12-24T06:47:43.796Z,9.22
2022-12-24T06:48:43.818Z,9.16
2022-12-24T06:49:43.800Z,9.23
2022-12-24T06:50:43.773Z,9.30
2022-12-24T06:51:43.787Z,9.26
2022-12-24T06:52:43.748Z,9.22
2022-12-24T06:53:43.774Z,9.24
2022-12-24T06:54:43.785Z,9.16
2022-12-24T06:55:43.779Z,9.24
2022-12-24T06:56:43.730Z,9.29
2022-12-24T06:57:43.733Z,9.30
2022-12-24T06:58:43.683Z,9.27
2022-12-24T06:59:43.742Z,9.24
2022-12-24T07:00:43.714Z,9.15
2022-12-24T07:01:43.818Z,9.32
2022-12-24T07:02:43.818Z,9.33
2022-12-24T07:03:43.710Z,9.44
2022-12-24T07:04:43.726Z,9.36
2022-12-24T07:05:43.688Z,9.40
2022-12-24T07:06:43.685Z,9.29
2022-12-24T07:07:43.684Z,9.32
2022-12-24T07:08:43.705Z,9.40
2022-12-24T07:09:43.644Z,9.42
2022-12-24T07:10:47.602Z,9.30
2022-12-24T07:11:44.722Z,9.42
2022-12-24T07:12:43.628Z,9.29
2022-12-24T07:13:43.677Z,9.30
2022-12-24T07:14:43.622Z,9.24
2022-12-24T07:15:43.674Z,9.26
2022-12-24T07:16:43.745Z,9.30
2022-12-24T07:17:43.686Z,9.22
2022-12-24T07:18:43.599Z,9.19
2022-12-24T07:19:43.576Z,9.22
2022-12-24T07:20:43.569Z,9.19
2022-12-24T07:21:43.717Z,9.15
2022-12-24T07:22:43.640Z,9.22
2022-12-24T07:23:43.550Z,9.19
2022-12-24T07:24:43.571Z,9.23
2022-12-24T07:25:43.553Z,9.18
2022-12-24T07:26:43.664Z,9.24
2022-12-24T07:27:43.522Z,9.19
2022-12-24T07:28:43.513Z,9.24
2022-12-24T07:29:43.522Z,9.26
2022-12-24T07:30:43.567Z,9.22
2022-12-24T07:31:43.528Z,9.22
2022-12-24T07:32:43.552Z,9.27
2022-12-24T07:33:44.510Z,9.23
2022-12-24T07:34:43.503Z,9.23
2022-12-24T07:35:43.457Z,9.24
2022-12-24T07:36:43.488Z,9.22
2022-12-24T07:37:43.612Z,9.16
2022-12-24T07:38:43.443Z,9.29
2022-12-24T07:39:43.472Z,9.26
2022-12-24T07:40:43.484Z,9.29
2022-12-24T07:41:43.477Z,9.34
2022-12-24T07:42:43.477Z,9.36
2022-12-24T07:43:43.554Z,9.34
2022-12-24T07:44:43.444Z,9.23
2022-12-24T07:45:43.397Z,9.37
2022-12-24T07:46:43.543Z,9.24
2022-12-24T07:47:43.402Z,9.23
2022-12-24T07:48:43.541Z,9.26
2022-12-24T07:49:43.408Z,9.27
2022-12-24T07:50:43.415Z,9.22
2022-12-24T07:51:43.346Z,9.29
2022-12-24T07:52:44.372Z,9.30
2022-12-24T07:53:43.359Z,9.24
2022-12-24T07:54:43.453Z,9.36
2022-12-24T07:55:43.400Z,9.36
2022-12-24T07:56:43.331Z,9.34
2022-12-24T07:57:43.377Z,9.42
2022-12-24T07:58:43.372Z,9.44
2022-12-24T07:59:43.350Z,9.44
2022-12-24T08:00:44.339Z,9.50
2022-12-24T08:01:43.443Z,9.42
2022-12-24T08:02:43.495Z,9.48
2022-12-24T08:03:43.411Z,9.44
2022-12-24T08:04:43.337Z,9.47
2022-12-24T08:05:43.404Z,9.40
2022-12-24T08:06:43.315Z,9.47
2022-12-24T08:07:43.295Z,9.40
2022-12-24T08:08:43.317Z,9.51
2022-12-24T08:09:43.296Z,9.45
2022-12-24T08:10:43.390Z,9.41
2022-12-24T08:11:49.711Z,9.54
2022-12-24T08:12:45.293Z,9.44
2022-12-24T08:13:43.277Z,9.44
2022-12-24T08:14:43.238Z,9.59
2022-12-24T08:15:43.266Z,9.70
2022-12-24T08:16:43.347Z,9.66
2022-12-24T08:17:43.225Z,9.75
2022-12-24T08:18:43.224Z,9.80
2022-12-24T08:19:43.183Z,9.77
2022-12-24T08:20:43.350Z,9.70
2022-12-24T08:21:43.310Z,9.69
2022-12-24T08:22:43.223Z,9.62
2022-12-24T08:23:43.214Z,9.59
2022-12-24T08:24:43.168Z,9.50
2022-12-24T08:25:43.172Z,9.55
2022-12-24T08:26:43.164Z,9.54
2022-12-24T08:27:43.200Z,9.57
2022-12-24T08:28:43.137Z,9.55
2022-12-24T08:29:43.155Z,9.59
2022-12-24T08:30:43.187Z,9.52
2022-12-24T08:31:43.216Z,9.59
2022-12-24T08:32:44.151Z,9.55
2022-12-24T08:33:43.110Z,9.47
2022-12-24T08:34:43.145Z,9.55
2022-12-24T08:35:43.149Z,9.47
2022-12-24T08:36:43.118Z,9.50
2022-12-24T08:37:43.143Z,9.47
2022-12-24T08:38:43.101Z,9.59
2022-12-24T08:39:43.090Z,9.60
2022-12-24T08:40:43.102Z,9.63
2022-12-24T08:41:43.074Z,9.66
2022-12-24T08:42:43.188Z,9.69
2022-12-24T08:43:43.133Z,9.60
2022-12-24T08:44:43.035Z,9.70
2022-12-24T08:45:43.125Z,9.62
2022-12-24T08:46:43.192Z,9.66
2022-12-24T08:47:43.045Z,9.65
2022-12-24T08:48:43.167Z,9.67
2022-12-24T08:49:43.040Z,9.69
2022-12-24T08:50:43.038Z,9.70
2022-12-24T08:51:44.019Z,9.70
2022-12-24T08:52:43.019Z,9.67
2022-12-24T08:53:43.025Z,9.70
2022-12-24T08:54:43.072Z,9.83
2022-12-24T08:55:42.988Z,9.72
2022-12-24T08:56:43.012Z,9.72
2022-12-24T08:57:42.973Z,9.63
2022-12-24T08:58:42.977Z,9.67
2022-12-24T08:59:43.025Z,9.65
2022-12-24T09:00:43.006Z,9.57
2022-12-24T09:01:43.260Z,9.67
2022-12-24T09:02:42.998Z,9.65
2022-12-24T09:03:43.176Z,9.75
2022-12-24T09:04:42.945Z,9.60
2022-12-24T09:05:43.015Z,9.59
2022-12-24T09:06:42.911Z,9.66
2022-12-24T09:07:42.947Z,9.70
2022-12-24T09:08:42.962Z,9.70
2022-12-24T09:09:42.930Z,9.83
2022-12-24T09:10:42.942Z,9.81
2022-12-24T09:11:42.920Z,10.05
2022-12-24T09:12:42.890Z,10.14
2022-12-24T09:13:42.871Z,10.20
2022-12-24T09:14:42.880Z,10.18
2022-12-24T09:15:42.857Z,10.24
2022-12-24T09:16:42.945Z,10.36
2022-12-24T09:17:42.862Z,10.28
2022-12-24T09:18:42.865Z,10.23
2022-12-24T09:19:42.843Z,10.10
2022-12-24T09:20:46.726Z,10.12
2022-12-24T09:21:43.920Z,10.03
2022-12-24T09:22:42.828Z,10.03
2022-12-24T09:23:42.859Z,10.02
2022-12-24T09:24:42.781Z,10.01
2022-12-24T09:25:42.819Z,9.98
2022-12-24T09:26:42.813Z,9.94
2022-12-24T09:27:42.868Z,10.01
2022-12-24T09:28:42.815Z,10.01
2022-12-24T09:29:42.773Z,9.98
2022-12-24T09:30:42.776Z,9.94
2022-12-24T09:31:42.804Z,9.88
2022-12-24T09:32:42.790Z,9.98
2022-12-24T09:33:42.781Z,10.08
2022-12-24T09:34:42.902Z,10.02
2022-12-24T09:35:42.798Z,9.94
2022-12-24T09:36:42.778Z,9.96
2022-12-24T09:37:42.757Z,10.08
2022-12-24T09:38:42.759Z,10.09
2022-12-24T09:39:42.736Z,10.08
2022-12-24T09:40:42.712Z,10.12
2022-12-24T09:41:42.750Z,10.10
2022-12-24T09:42:42.708Z,10.17
2022-12-24T09:43:42.727Z,10.14
2022-12-24T09:44:43.696Z,10.14
2022-12-24T09:45:42.778Z,10.14
2022-12-24T09:46:43.535Z,10.10
2022-12-24T09:47:42.702Z,10.10
2022-12-24T09:48:42.705Z,10.08
2022-12-24T09:49:42.667Z,9.98
2022-12-24T09:50:42.640Z,10.06
2022-12-24T09:51:42.659Z,9.98
2022-12-24T09:52:42.718Z,10.05
2022-12-24T09:53:42.657Z,10.09
2022-12-24T09:54:47.717Z,10.03
2022-12-24T09:55:44.657Z,10.23
2022-12-24T09:56:42.647Z,10.21
2022-12-24T09:57:42.617Z,10.10
2022-12-24T09:58:42.609Z,10.17
2022-12-24T09:59:42.602Z,10.02
2022-12-24T10:00:49.570Z,10.01
2022-12-24T10:01:43.680Z,10.06
2022-12-24T10:02:42.895Z,10.12
2022-12-24T10:03:42.628Z,10.02
2022-12-24T10:04:43.601Z,10.08
2022-12-24T10:05:42.579Z,10.08
2022-12-24T10:06:42.572Z,10.03
2022-12-24T10:07:42.589Z,10.06
2022-12-24T10:08:42.565Z,10.12
2022-12-24T10:09:42.555Z,10.17
2022-12-24T10:10:42.528Z,10.20
2022-12-24T10:11:44.374Z,10.30
2022-12-24T10:12:49.350Z,10.39
2022-12-24T10:13:43.508Z,10.49
2022-12-24T10:14:42.540Z,10.43
2022-12-24T10:15:42.549Z,10.64
2022-12-24T10:16:42.568Z,10.60
2022-12-24T10:17:42.497Z,10.64
2022-12-24T10:18:48.837Z,10.85
2022-12-24T10:19:43.526Z,10.91
2022-12-24T10:20:42.474Z,10.75
2022-12-24T10:21:42.479Z,10.83
2022-12-24T10:22:42.546Z,10.75
2022-12-24T10:23:42.433Z,10.72
2022-12-24T10:24:49.825Z,10.62
2022-12-24T10:25:42.443Z,10.67
2022-12-24T10:26:42.483Z,10.80
2022-12-24T10:27:42.596Z,10.86
2022-12-24T10:28:42.434Z,10.87
2022-12-24T10:29:42.474Z,10.94
2022-12-24T10:30:42.481Z,10.97
2022-12-24T10:31:43.376Z,11.04
2022-12-24T10:32:42.408Z,11.08
2022-12-24T10:33:42.388Z,11.03
2022-12-24T10:34:42.416Z,11.03
2022-12-24T10:35:42.381Z,11.00
2022-12-24T10:36:42.919Z,10.94
2022-12-24T10:37:42.400Z,10.98
2022-12-24T10:38:42.432Z,11.03
2022-12-24T10:39:42.383Z,10.95
2022-12-24T10:40:43.393Z,11.08
2022-12-24T10:41:42.354Z,11.04
2022-12-24T10:42:50.114Z,11.04
2022-12-24T10:43:44.548Z,10.98
2022-12-24T10:44:42.332Z,10.97
2022-12-24T10:45:42.434Z,10.91
2022-12-24T10:46:42.563Z,10.94
2022-12-24T10:47:42.304Z,11.08
2022-12-24T10:48:48.292Z,11.03
2022-12-24T10:49:43.368Z,11.03
2022-12-24T10:50:42.305Z,11.08
2022-12-24T10:51:42.315Z,11.15
2022-12-24T10:52:42.290Z,10.94
2022-12-24T10:53:42.388Z,11.03
2022-12-24T10:54:42.314Z,11.04
2022-12-24T10:55:42.285Z,11.00
2022-12-24T10:56:42.285Z,10.98
2022-12-24T10:57:42.338Z,11.00
2022-12-24T10:58:42.244Z,11.04
2022-12-24T10:59:42.318Z,11.04
2022-12-24T11:00:42.256Z,10.93
2022-12-24T11:01:42.384Z,10.97
2022-12-24T11:02:42.409Z,10.98
2022-12-24T11:03:42.285Z,11.00
2022-12-24T11:04:42.208Z,11.09
2022-12-24T11:05:42.318Z,11.13
2022-12-24T11:06:47.585Z,11.08
2022-12-24T11:07:43.214Z,11.09
2022-12-24T11:08:42.203Z,11.05
2022-12-24T11:09:42.201Z,11.09
2022-12-24T11:10:42.187Z,11.12
2022-12-24T11:11:42.312Z,11.04
2022-12-24T11:12:42.235Z,11.09
2022-12-24T11:13:42.180Z,11.12
2022-12-24T11:14:42.173Z,11.20
2022-12-24T11:15:42.295Z,11.19
2022-12-24T11:16:42.221Z,11.16
2022-12-24T11:17:42.172Z,11.27
2022-12-24T11:18:46.759Z,11.13
2022-12-24T11:19:44.158Z,11.12
2022-12-24T11:20:42.104Z,11.22
2022-12-24T11:21:42.137Z,11.23
2022-12-24T11:22:42.314Z,11.28
2022-12-24T11:23:42.182Z,11.33
2022-12-24T11:24:46.512Z,11.33
2022-12-24T11:25:42.090Z,11.37
2022-12-24T11:26:42.100Z,11.36
2022-12-24T11:27:42.169Z,11.36
2022-12-24T11:28:42.076Z,11.45
2022-12-24T11:29:42.093Z,11.28
2022-12-24T11:30:42.125Z,11.31
2022-12-24T11:31:42.084Z,11.30
2022-12-24T11:32:42.067Z,11.30
2022-12-24T11:33:42.157Z,11.34
2022-12-24T11:34:42.043Z,11.30
2022-12-24T11:35:42.043Z,11.25
2022-12-24T11:36:42.028Z,11.23
2022-12-24T11:37:42.048Z,11.19
2022-12-24T11:38:42.040Z,11.19
2022-12-24T11:39:42.019Z,11.18
2022-12-24T11:40:42.028Z,11.20
2022-12-24T11:41:42.005Z,11.05
2022-12-24T11:42:41.987Z,11.19
2022-12-24T11:43:41.979Z,11.12
2022-12-24T11:44:42.034Z,11.11
2022-12-24T11:45:42.076Z,11.05
2022-12-24T11:46:42.044Z,10.98
2022-12-24T11:47:41.965Z,11.13
2022-12-24T11:48:41.970Z,11.04
2022-12-24T11:49:41.951Z,11.15
2022-12-24T11:50:41.945Z,11.09
2022-12-24T11:51:41.969Z,11.15
2022-12-24T11:52:42.951Z,11.08
2022-12-24T11:53:42.897Z,11.16
2022-12-24T11:54:41.982Z,11.09
2022-12-24T11:55:42.026Z,10.98
2022-12-24T11:56:41.903Z,11.08
2022-12-24T11:57:41.891Z,11.00
2022-12-24T11:58:41.888Z,11.03
2022-12-24T11:59:41.907Z,10.98
2022-12-24T12:00:41.960Z,10.93
2022-12-24T12:01:41.905Z,11.01
2022-12-24T12:02:41.946Z,10.95
2022-12-24T12:03:41.899Z,10.80
2022-12-24T12:04:41.870Z,10.85
2022-12-24T12:05:41.844Z,10.83
2022-12-24T12:06:41.956Z,10.83
2022-12-24T12:07:42.835Z,10.86
2022-12-24T12:08:41.860Z,10.85
2022-12-24T12:09:41.846Z,10.83
2022-12-24T12:10:41.837Z,10.87
2022-12-24T12:11:41.922Z,10.90
2022-12-24T12:12:41.862Z,10.91
2022-12-24T12:13:41.833Z,10.82
2022-12-24T12:14:41.817Z,10.79
2022-12-24T12:15:41.866Z,10.83
2022-12-24T12:16:41.816Z,10.90
2022-12-24T12:17:41.960Z,10.82
2022-12-24T12:18:41.757Z,10.86
2022-12-24T12:19:41.816Z,10.87
2022-12-24T12:20:41.795Z,10.95
2022-12-24T12:21:41.786Z,10.87
2022-12-24T12:22:41.884Z,10.85
2022-12-24T12:23:41.748Z,10.91
2022-12-24T12:24:41.737Z,11.03
2022-12-24T12:25:41.762Z,10.91
2022-12-24T12:26:42.577Z,10.94
2022-12-24T12:27:41.695Z,10.93
2022-12-24T12:28:41.746Z,10.87
2022-12-24T12:29:41.737Z,11.00
2022-12-24T12:30:41.700Z,11.05
2022-12-24T12:31:41.761Z,11.09
2022-12-24T12:32:41.768Z,11.01
2022-12-24T12:33:41.730Z,11.12
2022-12-24T12:34:41.679Z,11.13
2022-12-24T12:35:41.714Z,11.12
2022-12-24T12:36:41.680Z,11.03
2022-12-24T12:37:41.625Z,10.97
2022-12-24T12:38:41.650Z,11.04
2022-12-24T12:39:41.688Z,10.91
2022-12-24T12:40:41.654Z,10.97
2022-12-24T12:41:41.670Z,10.97
2022-12-24T12:42:41.685Z,11.05
2022-12-24T12:43:41.640Z,11.03
2022-12-24T12:44:42.090Z,11.09
2022-12-24T12:45:41.643Z,11.18
2022-12-24T12:46:41.735Z,11.25
2022-12-24T12:47:41.605Z,11.11
2022-12-24T12:48:41.585Z,11.27
2022-12-24T12:49:41.590Z,11.25
2022-12-24T12:50:41.628Z,11.28
2022-12-24T12:51:41.602Z,11.30
2022-12-24T12:52:41.612Z,11.43
2022-12-24T12:53:41.576Z,11.51
2022-12-24T12:54:41.581Z,11.62
2022-12-24T12:55:41.592Z,11.64
2022-12-24T12:56:41.527Z,11.67
2022-12-24T12:57:41.552Z,11.84
2022-12-24T12:58:41.560Z,11.85
2022-12-24T12:59:41.541Z,11.80
2022-12-24T13:00:41.595Z,11.76
2022-12-24T13:01:41.716Z,11.74
2022-12-24T13:02:41.687Z,11.79
2022-12-24T13:03:41.520Z,11.67